createdAt,value
2022-09-01T00:01:44.134Z,21.70
2022-09-01T00:04:13.849Z,21.60
2022-09-01T00:06:40.953Z,21.60
2022-09-01T00:09:10.884Z,21.60
2022-09-01T00:11:39.006Z,21.50
2022-09-01T00:14:07.021Z,21.50
2022-09-01T00:16:54.127Z,21.50
2022-09-01T00:19:22.685Z,21.50
2022-09-01T00:21:49.626Z,21.50
2022-09-01T00:24:18.000Z,21.50
2022-09-01T00:26:45.292Z,21.50
2022-09-01T00:29:12.433Z,21.40
2022-09-01T00:31:40.066Z,21.40
2022-09-01T00:34:06.907Z,21.40
2022-09-01T00:36:33.957Z,21.40
2022-09-01T00:39:00.933Z,21.30
2022-09-01T00:41:30.623Z,21.30
2022-09-01T00:44:00.888Z,21.30
2022-09-01T00:46:30.825Z,21.20
2022-09-01T00:49:04.302Z,21.20
2022-09-01T00:51:34.743Z,21.10
2022-09-01T00:54:02.979Z,21.10
2022-09-01T00:56:31.885Z,21.00
2022-09-01T00:59:01.080Z,21.00
2022-09-01T01:01:28.516Z,21.00
2022-09-01T01:03:55.295Z,20.90
2022-09-01T01:06:30.690Z,20.90
2022-09-01T01:09:00.851Z,20.90
2022-09-01T01:11:31.944Z,20.80
2022-09-01T01:14:10.427Z,20.80
2022-09-01T01:16:40.891Z,20.80
2022-09-01T01:19:31.025Z,20.80
2022-09-01T01:22:21.760Z,20.70
2022-09-01T01:24:48.478Z,20.70
2022-09-01T01:27:17.954Z,20.70
2022-09-01T01:29:44.847Z,20.70
2022-09-01T01:32:13.000Z,20.60
2022-09-01T01:34:42.496Z,20.60
2022-09-01T01:37:10.914Z,20.60
2022-09-01T01:39:42.720Z,20.60
2022-09-01T01:42:10.348Z,20.50
2022-09-01T01:44:38.324Z,20.50
2022-09-01T01:47:12.909Z,20.50
2022-09-01T01:49:44.137Z,20.50
2022-09-01T01:52:17.481Z,20.40
2022-09-01T01:54:47.594Z,20.40
2022-09-01T01:57:17.495Z,20.40
2022-09-01T01:59:46.135Z,20.40
2022-09-01T02:02:13.096Z,20.30
2022-09-01T02:04:40.355Z,20.30
2022-09-01T02:07:13.918Z,20.30
2022-09-01T02:09:44.132Z,20.30
2022-09-01T02:12:11.024Z,20.20
2022-09-01T02:14:42.391Z,20.20
2022-09-01T02:17:09.228Z,20.20
2022-09-01T02:19:40.200Z,20.20
2022-09-01T02:22:07.069Z,20.20
2022-09-01T02:24:34.475Z,20.10
2022-09-01T02:27:01.294Z,20.10
2022-09-01T02:29:30.202Z,20.10
2022-09-01T02:32:00.894Z,20.10
2022-09-01T02:34:28.872Z,20.10
2022-09-01T02:36:57.245Z,20.20
2022-09-01T02:39:28.854Z,20.10
2022-09-01T02:41:56.113Z,20.10
2022-09-01T02:44:29.133Z,20.10
2022-09-01T02:46:56.698Z,20.10
2022-09-01T02:49:29.810Z,20.10
2022-09-01T02:52:01.255Z,20.10
2022-09-01T02:54:31.112Z,20.10
2022-09-01T02:56:58.535Z,19.90
2022-09-01T02:59:27.667Z,19.90
2022-09-01T03:01:58.004Z,19.90
2022-09-01T03:04:27.057Z,19.90
2022-09-01T03:06:54.922Z,19.90
2022-09-01T03:09:22.683Z,19.80
2022-09-01T03:11:52.179Z,19.80
2022-09-01T03:14:20.116Z,19.80
2022-09-01T03:16:47.710Z,19.80
2022-09-01T03:19:15.087Z,19.70
2022-09-01T03:21:45.412Z,19.80
2022-09-01T03:24:17.829Z,19.80
2022-09-01T03:26:49.706Z,19.70
2022-09-01T03:29:18.019Z,19.70
2022-09-01T03:31:45.421Z,19.70
2022-09-01T03:34:12.588Z,19.70
2022-09-01T03:36:50.272Z,19.70
2022-09-01T03:39:23.902Z,19.60
2022-09-01T03:41:50.864Z,19.60
2022-09-01T03:44:17.674Z,19.60
2022-09-01T03:46:45.594Z,19.60
2022-09-01T03:49:15.300Z,19.60
2022-09-01T03:51:45.044Z,19.50
2022-09-01T03:54:12.746Z,19.50
2022-09-01T03:56:42.035Z,19.40
2022-09-01T03:59:16.766Z,19.40
2022-09-01T04:01:45.627Z,19.40
2022-09-01T04:04:13.988Z,19.40
2022-09-01T04:06:42.939Z,19.30
2022-09-01T04:09:10.855Z,19.30
2022-09-01T04:11:45.031Z,19.20
2022-09-01T04:14:14.975Z,19.20
2022-09-01T04:17:02.256Z,19.20
2022-09-01T04:19:30.504Z,19.20
2022-09-01T04:22:00.725Z,19.10
2022-09-01T04:24:34.756Z,19.10
2022-09-01T04:27:03.831Z,19.10
2022-09-01T04:29:31.906Z,19.00
2022-09-01T04:32:03.580Z,19.00
2022-09-01T04:34:37.325Z,19.00
2022-09-01T04:37:14.664Z,19.00
2022-09-01T04:39:50.462Z,18.90
2022-09-01T04:42:24.215Z,18.90
2022-09-01T04:44:53.545Z,18.80
2022-09-01T04:47:35.437Z,18.80
2022-09-01T04:50:12.917Z,18.80
2022-09-01T04:52:42.074Z,18.80
2022-09-01T04:55:17.896Z,18.80
2022-09-01T04:57:47.628Z,18.80
2022-09-01T05:00:22.800Z,18.80
2022-09-01T05:02:55.049Z,18.80
2022-09-01T05:05:25.124Z,18.80
2022-09-01T05:07:55.547Z,18.80
2022-09-01T05:10:23.507Z,18.80
2022-09-01T05:13:18.364Z,18.80
2022-09-01T05:15:46.912Z,18.80
2022-09-01T05:18:16.753Z,18.80
2022-09-01T05:20:44.423Z,18.80
2022-09-01T05:23:13.151Z,18.90
2022-09-01T05:25:43.943Z,18.90
2022-09-01T05:28:15.203Z,18.90
2022-09-01T05:30:43.097Z,18.90
2022-09-01T05:33:11.591Z,18.90
2022-09-01T05:36:04.626Z,18.80
2022-09-01T05:38:31.475Z,18.90
2022-09-01T05:41:03.981Z,18.90
2022-09-01T05:43:33.534Z,18.90
2022-09-01T05:46:06.970Z,18.90
2022-09-01T05:48:39.742Z,19.00
2022-09-01T05:51:22.343Z,19.00
2022-09-01T05:53:59.230Z,19.10
2022-09-01T05:56:29.287Z,19.10
2022-09-01T06:01:50.209Z,19.20
2022-09-01T06:04:18.652Z,19.30
2022-09-01T06:07:05.647Z,19.40
2022-09-01T06:09:38.769Z,19.50
2022-09-01T06:12:06.757Z,19.50
2022-09-01T06:14:34.850Z,19.50
2022-09-01T06:17:03.173Z,19.50
2022-09-01T06:19:34.844Z,19.60
2022-09-01T06:22:04.739Z,19.70
2022-09-01T06:24:32.296Z,19.70
2022-09-01T06:26:59.659Z,19.80
2022-09-01T06:29:26.505Z,19.80
2022-09-01T06:31:54.989Z,19.90
2022-09-01T06:34:22.297Z,20.00
2022-09-01T06:36:51.686Z,20.10
2022-09-01T06:39:20.347Z,20.20
2022-09-01T06:41:53.001Z,20.30
2022-09-01T06:44:24.558Z,20.30
2022-09-01T06:47:00.482Z,20.50
2022-09-01T06:49:36.726Z,20.70
2022-09-01T06:52:09.107Z,20.80
2022-09-01T06:54:39.098Z,20.90
2022-09-01T06:59:54.208Z,21.10
2022-09-01T07:02:26.454Z,21.30
2022-09-01T07:08:09.361Z,21.70
2022-09-01T07:16:42.092Z,22.10
2022-09-01T07:19:19.462Z,22.30
2022-09-01T07:22:08.608Z,22.40
2022-09-01T07:24:40.082Z,22.50
2022-09-01T07:27:36.282Z,22.60
2022-09-01T07:30:11.987Z,22.70
2022-09-01T07:32:47.222Z,22.80
2022-09-01T07:35:18.156Z,23.00
2022-09-01T07:43:41.980Z,23.40
2022-09-01T07:46:40.069Z,23.60
2022-09-01T07:51:59.804Z,23.90
2022-09-01T07:54:27.505Z,24.00
2022-09-01T07:56:56.175Z,24.00
2022-09-01T07:59:24.141Z,24.00
2022-09-01T08:02:03.926Z,24.00
2022-09-01T08:04:31.667Z,24.20
2022-09-01T08:06:58.928Z,24.30
2022-09-01T08:09:32.908Z,24.40
2022-09-01T08:12:07.533Z,24.50
2022-09-01T08:14:38.969Z,24.60
2022-09-01T08:19:56.368Z,24.70
2022-09-01T08:22:43.143Z,24.80
2022-09-01T08:25:31.274Z,24.90
2022-09-01T08:28:00.567Z,25.00
2022-09-01T08:30:28.378Z,25.10
2022-09-01T08:32:55.588Z,25.20
2022-09-01T08:35:23.388Z,25.30
2022-09-01T08:37:50.234Z,25.40
2022-09-01T08:40:20.182Z,25.50
2022-09-01T08:43:15.319Z,25.60
2022-09-01T08:45:46.093Z,25.80
2022-09-01T08:51:17.130Z,26.00
2022-09-01T08:54:11.779Z,26.10
2022-09-01T08:56:40.262Z,26.20
2022-09-01T08:59:09.674Z,26.40
2022-09-01T09:02:14.082Z,26.40
2022-09-01T09:04:59.548Z,26.60
2022-09-01T09:07:44.812Z,26.70
2022-09-01T09:10:18.893Z,26.90
2022-09-01T09:13:16.713Z,27.00
2022-09-01T09:15:51.957Z,27.10
2022-09-01T09:19:01.597Z,27.30
2022-09-01T09:21:43.403Z,27.40
2022-09-01T09:24:38.600Z,27.60
2022-09-01T09:27:07.062Z,27.70
2022-09-01T09:29:36.684Z,27.90
2022-09-01T09:32:06.928Z,28.10
2022-09-01T09:34:49.543Z,28.20
2022-09-01T09:37:30.705Z,28.40
2022-09-01T09:40:15.116Z,28.60
2022-09-01T09:42:54.314Z,28.80
2022-09-01T09:45:28.786Z,29.10
2022-09-01T09:47:57.599Z,29.30
2022-09-01T09:50:35.508Z,29.50
2022-09-01T09:53:27.869Z,29.60
2022-09-01T09:55:58.964Z,29.90
2022-09-01T09:58:33.634Z,30.10
2022-09-01T10:01:07.484Z,30.20
2022-09-01T10:03:38.896Z,30.40
2022-09-01T10:06:16.143Z,30.30
2022-09-01T10:08:45.721Z,30.40
2022-09-01T10:11:33.519Z,30.60
2022-09-01T10:14:06.911Z,30.70
2022-09-01T10:16:37.370Z,30.80
2022-09-01T10:19:09.277Z,30.80
2022-09-01T10:21:42.432Z,30.90
2022-09-01T10:24:33.422Z,31.00
2022-09-01T10:27:05.220Z,31.10
2022-09-01T10:29:50.819Z,31.10
2022-09-01T10:32:36.948Z,31.10
2022-09-01T10:35:07.856Z,31.10
2022-09-01T10:37:35.169Z,31.30
2022-09-01T10:40:31.771Z,31.40
2022-09-01T10:43:19.772Z,31.40
2022-09-01T10:45:51.226Z,31.70
2022-09-01T10:48:45.483Z,32.00
2022-09-01T10:51:18.243Z,32.20
2022-09-01T10:53:47.380Z,32.40
2022-09-01T10:56:29.458Z,32.70
2022-09-01T10:59:35.705Z,32.80
2022-09-01T11:02:35.031Z,32.90
2022-09-01T11:05:00.301Z,33.10
2022-09-01T11:07:50.694Z,33.50
2022-09-01T11:10:35.605Z,33.70
2022-09-01T11:13:14.914Z,34.10
2022-09-01T11:15:45.008Z,34.60
2022-09-01T11:18:19.294Z,35.00
2022-09-01T11:20:47.330Z,35.30
2022-09-01T11:23:30.535Z,35.30
2022-09-01T11:26:20.333Z,35.20
2022-09-01T11:28:47.462Z,35.00
2022-09-01T11:31:38.192Z,34.70
2022-09-01T11:34:10.966Z,34.60
2022-09-01T11:36:45.776Z,34.50
2022-09-01T11:39:19.296Z,34.60
2022-09-01T11:41:48.951Z,34.80
2022-09-01T11:44:27.252Z,35.20
2022-09-01T11:47:05.567Z,35.70
2022-09-01T11:49:39.008Z,36.20
2022-09-01T11:52:06.473Z,36.40
2022-09-01T11:54:42.552Z,36.30
2022-09-01T11:57:25.954Z,36.10
2022-09-01T11:59:53.191Z,36.10
2022-09-01T12:02:31.649Z,36.30
2022-09-01T12:04:59.704Z,36.40
2022-09-01T12:07:39.453Z,36.60
2022-09-01T12:10:26.276Z,37.00
2022-09-01T12:13:08.791Z,37.60
2022-09-01T12:16:00.472Z,38.40
2022-09-01T12:18:47.345Z,39.00
2022-09-01T12:21:25.847Z,39.90
2022-09-01T12:23:53.027Z,40.70
2022-09-01T12:26:30.287Z,41.40
2022-09-01T12:28:57.239Z,41.80
2022-09-01T12:31:26.155Z,42.50
2022-09-01T12:33:55.007Z,43.10
2022-09-01T12:36:34.939Z,43.70
2022-09-01T12:39:22.392Z,43.70
2022-09-01T12:42:08.814Z,43.80
2022-09-01T12:44:39.436Z,43.50
2022-09-01T12:47:33.628Z,43.30
2022-09-01T12:50:26.472Z,42.90
2022-09-01T12:53:00.090Z,42.60
2022-09-01T12:55:49.464Z,42.00
2022-09-01T12:58:23.288Z,41.60
2022-09-01T13:01:03.933Z,41.30
2022-09-01T13:03:32.166Z,41.00
2022-09-01T13:06:03.486Z,40.70
2022-09-01T13:08:33.205Z,40.50
2022-09-01T13:11:09.357Z,40.20
2022-09-01T13:13:38.050Z,40.20
2022-09-01T13:16:12.998Z,40.10
2022-09-01T13:21:29.002Z,39.60
2022-09-01T13:23:56.152Z,39.40
2022-09-01T13:26:23.995Z,39.30
2022-09-01T13:28:51.524Z,39.40
2022-09-01T13:31:34.378Z,39.50
2022-09-01T13:34:10.388Z,39.50
2022-09-01T13:36:49.439Z,39.40
2022-09-01T13:39:18.953Z,39.30
2022-09-01T13:41:47.144Z,39.00
2022-09-01T13:44:14.737Z,38.80
2022-09-01T13:50:06.310Z,37.20
2022-09-01T13:52:16.476Z,36.70
2022-09-01T13:54:47.805Z,36.10
2022-09-01T13:57:16.280Z,35.50
2022-09-01T13:59:43.262Z,35.10
2022-09-01T14:02:10.901Z,34.60
2022-09-01T14:04:38.022Z,34.40
2022-09-01T14:07:04.943Z,34.30
2022-09-01T14:09:31.829Z,34.10
2022-09-01T14:11:59.338Z,34.00
2022-09-01T14:14:26.479Z,34.00
2022-09-01T14:16:53.944Z,34.40
2022-09-01T14:19:20.925Z,34.50
2022-09-01T14:21:49.583Z,34.30
2022-09-01T14:24:19.899Z,34.20
2022-09-01T14:26:47.604Z,33.90
2022-09-01T14:29:14.342Z,33.70
2022-09-01T14:31:43.441Z,33.40
2022-09-01T14:34:12.203Z,33.10
2022-09-01T14:36:39.381Z,32.70
2022-09-01T14:39:06.202Z,32.40
2022-09-01T14:41:33.317Z,32.10
2022-09-01T14:44:03.254Z,31.90
2022-09-01T14:46:33.757Z,31.60
2022-09-01T14:49:01.739Z,31.40
2022-09-01T14:54:17.113Z,31.10
2022-09-01T14:57:28.585Z,30.90
2022-09-01T14:59:31.116Z,30.80
2022-09-01T15:01:57.980Z,30.60
2022-09-01T15:04:24.932Z,30.40
2022-09-01T15:06:51.721Z,30.30
2022-09-01T15:09:19.271Z,30.20
2022-09-01T15:11:46.672Z,30.10
2022-09-01T15:14:13.825Z,30.00
2022-09-01T15:16:41.480Z,29.90
2022-09-01T15:19:12.791Z,29.90
2022-09-01T15:21:42.399Z,29.80
2022-09-01T15:24:10.273Z,29.70
2022-09-01T15:26:38.360Z,29.70
2022-09-01T15:29:05.327Z,29.60
2022-09-01T15:31:33.750Z,29.60
2022-09-01T15:34:03.394Z,29.60
2022-09-01T15:36:31.950Z,29.60
2022-09-01T15:38:59.120Z,29.60
2022-09-01T15:41:28.713Z,29.60
2022-09-01T15:43:58.376Z,29.50
2022-09-01T15:46:32.727Z,29.50
2022-09-01T15:49:04.703Z,29.50
2022-09-01T15:51:39.851Z,29.50
2022-09-01T15:54:11.516Z,29.40
2022-09-01T15:56:38.419Z,29.40
2022-09-01T15:59:07.201Z,29.40
2022-09-01T16:01:39.739Z,29.30
2022-09-01T16:04:08.811Z,29.30
2022-09-01T16:06:35.949Z,29.30
2022-09-01T16:09:02.738Z,29.20
2022-09-01T16:11:29.630Z,29.20
2022-09-01T16:13:56.896Z,29.10
2022-09-01T16:16:52.840Z,29.10
2022-09-01T16:19:31.955Z,29.10
2022-09-01T16:22:16.756Z,29.10
2022-09-01T16:24:46.881Z,29.10
2022-09-01T16:27:18.201Z,29.00
2022-09-01T16:29:58.994Z,29.10
2022-09-01T16:32:27.052Z,29.10
2022-09-01T16:34:53.963Z,29.10
2022-09-01T16:37:39.808Z,29.10
2022-09-01T16:40:18.652Z,29.10
2022-09-01T16:42:58.870Z,29.00
2022-09-01T16:45:52.443Z,29.00
2022-09-01T16:48:22.031Z,28.90
2022-09-01T16:50:56.164Z,28.90
2022-09-01T16:53:30.178Z,28.90
2022-09-01T16:56:11.875Z,28.90
2022-09-01T16:58:44.903Z,28.90
2022-09-01T17:01:34.287Z,28.90
2022-09-01T17:04:25.290Z,28.90
2022-09-01T17:06:58.696Z,28.90
2022-09-01T17:09:41.946Z,28.90
2022-09-01T17:12:23.196Z,28.90
2022-09-01T17:14:57.608Z,28.90
2022-09-01T17:17:32.001Z,28.90
2022-09-01T17:19:58.908Z,28.80
2022-09-01T17:22:26.349Z,28.80
2022-09-01T17:25:00.637Z,28.80
2022-09-01T17:27:52.886Z,28.80
2022-09-01T17:30:19.943Z,28.70
2022-09-01T17:33:17.425Z,28.70
2022-09-01T17:36:05.641Z,28.70
2022-09-01T17:38:58.052Z,28.60
2022-09-01T17:41:36.052Z,28.60
2022-09-01T17:44:19.064Z,28.50
2022-09-01T17:46:58.823Z,28.50
2022-09-01T17:49:50.687Z,28.40
2022-09-01T17:52:54.317Z,28.30
2022-09-01T17:55:45.133Z,28.20
2022-09-01T17:58:32.382Z,28.10
2022-09-01T18:01:14.169Z,28.00
2022-09-01T18:03:51.309Z,27.90
2022-09-01T18:06:25.956Z,27.80
2022-09-01T18:08:58.096Z,27.80
2022-09-01T18:11:59.247Z,27.70
2022-09-01T18:14:47.763Z,27.60
2022-09-01T18:17:38.468Z,27.50
2022-09-01T18:20:28.775Z,27.40
2022-09-01T18:23:04.622Z,27.30
2022-09-01T18:25:40.952Z,27.30
2022-09-01T18:28:08.781Z,27.20
2022-09-01T18:30:54.957Z,27.20
2022-09-01T18:33:35.385Z,27.00
2022-09-01T18:36:14.240Z,27.00
2022-09-01T18:38:57.762Z,26.90
2022-09-01T18:41:52.528Z,26.80
2022-09-01T18:44:26.611Z,26.80
2022-09-01T18:47:01.005Z,26.70
2022-09-01T18:49:56.586Z,26.70
2022-09-01T18:52:37.884Z,26.60
2022-09-01T18:55:25.864Z,26.50
2022-09-01T18:57:56.774Z,26.40
2022-09-01T19:00:53.800Z,26.40
2022-09-01T19:03:20.770Z,26.30
2022-09-01T19:06:14.965Z,26.20
2022-09-01T19:09:02.989Z,26.10
2022-09-01T19:11:58.124Z,26.00
2022-09-01T19:14:54.882Z,25.90
2022-09-01T19:17:30.519Z,25.80
2022-09-01T19:20:14.540Z,25.80
2022-09-01T19:22:56.211Z,25.70
2022-09-01T19:25:36.750Z,25.60
2022-09-01T19:28:11.767Z,25.50
2022-09-01T19:30:51.628Z,25.40
2022-09-01T19:33:25.622Z,25.30
2022-09-01T19:35:57.511Z,25.30
2022-09-01T19:38:27.756Z,25.10
2022-09-01T19:41:03.663Z,25.10
2022-09-01T19:43:34.270Z,25.00
2022-09-01T19:46:15.254Z,24.90
2022-09-01T19:48:45.095Z,24.90
2022-09-01T19:51:41.824Z,24.80
2022-09-01T19:54:11.319Z,24.80
2022-09-01T19:56:55.700Z,24.70
2022-09-01T19:59:32.914Z,24.70
2022-09-01T20:02:08.916Z,24.60
2022-09-01T20:04:35.602Z,24.60
2022-09-01T20:07:03.313Z,24.50
2022-09-01T20:09:49.275Z,24.50
2022-09-01T20:12:39.491Z,24.50
2022-09-01T20:15:06.198Z,24.40
2022-09-01T20:17:50.136Z,24.40
2022-09-01T20:20:25.448Z,24.30
2022-09-01T20:23:07.065Z,24.30
2022-09-01T20:25:45.457Z,24.30
2022-09-01T20:28:23.735Z,24.20
2022-09-01T20:30:57.037Z,24.20
2022-09-01T20:33:51.159Z,24.20
2022-09-01T20:36:36.631Z,24.10
2022-09-01T20:40:10.293Z,24.00
2022-09-01T20:43:08.400Z,24.00
2022-09-01T20:45:35.832Z,24.00
2022-09-01T20:48:06.425Z,24.00
2022-09-01T20:50:50.701Z,24.00
2022-09-01T20:53:44.599Z,24.00
2022-09-01T20:56:28.362Z,24.00
2022-09-01T20:59:06.563Z,24.00
2022-09-01T21:02:02.563Z,23.90
2022-09-01T21:04:50.754Z,23.90
2022-09-01T21:07:31.371Z,23.90
2022-09-01T21:09:58.272Z,23.90
2022-09-01T21:12:50.911Z,23.80
2022-09-01T21:15:27.297Z,23.80
2022-09-01T21:18:31.747Z,23.80
2022-09-01T21:21:25.619Z,23.70
2022-09-01T21:23:52.367Z,23.70
2022-09-01T21:26:19.248Z,23.70
2022-09-01T21:28:51.177Z,23.60
2022-09-01T21:31:20.043Z,23.60
2022-09-01T21:33:46.920Z,23.60
2022-09-01T21:36:13.865Z,23.60
2022-09-01T21:38:40.660Z,23.60
2022-09-01T21:41:13.052Z,23.60
2022-09-01T21:43:43.523Z,23.50
2022-09-01T21:46:10.917Z,23.50
2022-09-01T21:48:37.743Z,23.40
2022-09-01T21:51:04.758Z,23.50
2022-09-01T21:53:32.455Z,23.40
2022-09-01T21:55:59.620Z,23.40
2022-09-01T21:58:26.403Z,23.40
2022-09-01T22:00:53.315Z,23.30
2022-09-01T22:03:20.282Z,23.30
2022-09-01T22:05:47.046Z,23.30
2022-09-01T22:08:16.072Z,23.30
2022-09-01T22:10:49.415Z,23.30
2022-09-01T22:13:16.901Z,23.20
2022-09-01T22:15:46.269Z,23.20
2022-09-01T22:18:13.633Z,23.10
2022-09-01T22:20:41.862Z,23.10
2022-09-01T22:23:09.349Z,23.10
2022-09-01T22:25:42.128Z,23.00
2022-09-01T22:28:09.456Z,23.00
2022-09-01T22:30:36.666Z,23.00
2022-09-01T22:33:07.555Z,23.00
2022-09-01T22:35:34.307Z,22.90
2022-09-01T22:38:01.093Z,22.90
2022-09-01T22:40:27.872Z,22.90
2022-09-01T22:42:54.680Z,22.90
2022-09-01T22:45:21.396Z,22.90
2022-09-01T22:47:48.130Z,22.80
2022-09-01T22:50:14.886Z,22.90
2022-09-01T22:52:41.941Z,22.80
2022-09-01T22:55:09.673Z,22.80
2022-09-01T22:57:36.808Z,22.80
2022-09-01T23:00:08.292Z,22.80
2022-09-01T23:02:35.246Z,22.80
2022-09-01T23:05:02.659Z,22.80
2022-09-01T23:07:37.552Z,22.80
2022-09-01T23:10:08.189Z,22.80
2022-09-01T23:12:34.982Z,22.80
2022-09-01T23:15:01.796Z,22.70
2022-09-01T23:17:28.542Z,22.70
2022-09-01T23:19:55.303Z,22.70
2022-09-01T23:22:21.995Z,22.70
2022-09-01T23:24:48.767Z,22.70
2022-09-01T23:27:15.525Z,22.70
2022-09-01T23:29:42.527Z,22.60
2022-09-01T23:32:09.347Z,22.60
2022-09-01T23:34:36.384Z,22.60
2022-09-01T23:37:03.168Z,22.50
2022-09-01T23:39:29.961Z,22.50
2022-09-01T23:41:58.152Z,22.50
2022-09-01T23:44:25.017Z,22.40
2022-09-01T23:46:51.790Z,22.40
2022-09-01T23:49:19.481Z,22.40
2022-09-01T23:51:47.626Z,22.40
2022-09-01T23:54:15.286Z,22.40
2022-09-01T23:56:42.036Z,22.30
2022-09-01T23:59:09.138Z,22.30
